Time;durP1;ratioP1;P1;durP2;ratioP2;P2;SDS_P1;SDS_P2;PMS_P1;PMS_P2;Temp;Humidity;BMP_temperature;BMP_pressure;BME280_temperature;BME280_humidity;BME280_pressure;Samples;Min_cycle;Max_cycle;Signal;HPM_P1;HPM_P2
2022/10/17 00:01:25;;;;;;;0.00;0.00;;;;;;;17.73;69.75;98515.28;8253374;28;20461;-78
2022/10/17 00:05:28;;;;;;;0.00;0.00;;;;;;;17.83;69.57;98520.75;8253250;28;20241;-78
2022/10/17 00:09:32;;;;;;;0.00;0.00;;;;;;;17.74;70.24;98522.22;8252927;28;20309;-77
2022/10/17 00:13:35;;;;;;;0.00;0.00;;;;;;;17.75;69.58;98526.50;8252791;28;20285;-77
2022/10/17 00:17:37;;;;;;;0.00;0.00;;;;;;;17.70;69.98;98525.13;8228592;28;20243;-75
2022/10/17 00:21:40;;;;;;;0.00;0.00;;;;;;;17.70;69.57;98527.75;8220580;28;20232;-78
2022/10/17 00:25:45;;;;;;;0.00;0.00;;;;;;;17.69;69.54;98528.69;8220539;28;20242;-77
2022/10/17 00:29:48;;;;;;;0.00;0.00;;;;;;;17.69;69.72;98534.75;8220309;28;20244;-77
2022/10/17 00:33:52;;;;;;;0.00;0.00;;;;;;;17.68;69.82;98534.84;8220514;28;20546;-77
2022/10/17 00:37:54;;;;;;;0.00;0.00;;;;;;;17.67;69.94;98533.16;8220362;28;20236;-77
2022/10/17 00:41:58;;;;;;;0.00;0.00;;;;;;;17.63;70.33;98534.31;8220138;28;20283;-77
2022/10/17 00:46:01;;;;;;;0.00;0.00;;;;;;;17.65;70.39;98535.03;8219950;28;20299;-77
2022/10/17 00:50:05;;;;;;;0.00;0.00;;;;;;;17.66;69.94;98532.34;8219909;28;20518;-77
2022/10/17 00:54:09;;;;;;;0.00;0.00;;;;;;;17.69;69.73;98529.53;8219124;28;20242;-78
2022/10/17 00:58:13;;;;;;;0.00;0.00;;;;;;;17.61;70.04;98528.31;8219819;28;20229;-77
2022/10/17 01:02:18;;;;;;;0.00;0.00;;;;;;;17.63;70.43;98526.44;8219463;28;20232;-77
2022/10/17 01:06:21;;;;;;;0.00;0.00;;;;;;;17.61;70.22;98531.81;8219397;28;20232;-78
2022/10/17 01:10:27;;;;;;;0.00;0.00;;;;;;;17.61;70.21;98533.56;8219012;28;20291;-77
2022/10/17 01:14:37;;;;;;;0.00;0.00;;;;;;;17.56;70.38;98541.72;8219470;28;20410;-77
2022/10/17 01:18:52;;;;;;;0.00;0.00;;;;;;;17.51;70.57;98549.03;8218590;28;20513;-77
2022/10/17 01:23:04;;;;;;;0.00;0.00;;;;;;;17.42;70.70;98540.00;8218972;28;20255;-77
2022/10/17 01:27:21;;;;;;;0.00;0.00;;;;;;;17.51;70.16;98554.25;8218751;28;20223;-78
2022/10/17 01:31:27;;;;;;;0.00;0.00;;;;;;;17.42;70.24;98549.59;8218771;28;20241;-78
2022/10/17 01:35:34;;;;;;;0.00;0.00;;;;;;;17.36;70.07;98543.84;8218838;28;20240;-78
2022/10/17 01:39:47;;;;;;;0.00;0.00;;;;;;;17.46;69.90;98548.47;8218547;28;20233;-78
2022/10/17 01:43:53;;;;;;;0.00;0.00;;;;;;;17.41;70.10;98548.78;8218270;28;20268;-77
2022/10/17 01:48:01;;;;;;;0.00;0.00;;;;;;;17.41;69.97;98548.78;8218601;28;20236;-78
2022/10/17 01:52:08;;;;;;;0.00;0.00;;;;;;;17.37;70.44;98540.28;8218475;28;20578;-78
2022/10/17 01:56:12;;;;;;;0.00;0.00;;;;;;;17.36;70.44;98537.75;8218408;28;20251;-77
2022/10/17 02:00:19;;;;;;;0.00;0.00;;;;;;;17.31;70.17;98542.44;8218344;28;20227;-78
2022/10/17 02:04:23;;;;;;;0.00;0.00;;;;;;;17.30;70.52;98538.97;8218003;28;20235;-77
2022/10/17 02:08:27;;;;;;;0.00;0.00;;;;;;;17.25;71.00;98529.72;8217636;28;20235;-78
2022/10/17 02:12:45;;;;;;;0.00;0.00;;;;;;;17.26;70.57;98527.00;8218089;28;20305;-77
2022/10/17 02:16:55;;;;;;;0.00;0.00;;;;;;;17.06;72.07;98522.19;8249344;28;20238;-77
2022/10/17 02:21:03;;;;;;;0.00;0.00;;;;;;;17.06;72.32;98528.28;8249819;28;20239;-77
2022/10/17 02:25:10;;;;;;;0.00;0.00;;;;;;;17.20;71.19;98520.38;8249617;28;20234;-78
2022/10/17 02:29:16;;;;;;;0.00;0.00;;;;;;;17.18;71.17;98522.25;8249590;28;20230;-77
2022/10/17 02:33:23;;;;;;;0.00;0.00;;;;;;;17.20;71.10;98522.16;8249332;28;20235;-77
2022/10/17 02:37:29;;;;;;;0.00;0.00;;;;;;;17.20;70.96;98522.16;8249383;28;20242;-78
2022/10/17 02:41:33;;;;;;;0.00;0.00;;;;;;;17.15;71.05;98529.47;8249616;28;20262;-78
2022/10/17 02:45:37;;;;;;;0.00;0.00;;;;;;;17.12;71.00;98534.91;8249501;28;20239;-77
2022/10/17 02:49:44;;;;;;;0.00;0.00;;;;;;;17.08;70.72;98530.81;8248682;28;20527;-78
2022/10/17 02:53:53;;;;;;;0.00;0.00;;;;;;;17.04;70.24;98531.91;8249176;28;20239;-78
2022/10/17 02:57:57;;;;;;;0.00;0.00;;;;;;;17.04;70.47;98535.38;8249146;28;20405;-78
2022/10/17 03:02:03;;;;;;;0.00;0.00;;;;;;;17.00;70.30;98542.56;8249275;28;20246;-77
2022/10/17 03:06:05;;;;;;;0.00;0.00;;;;;;;16.98;69.95;98551.44;8248899;28;20239;-78
2022/10/17 03:10:10;;;;;;;0.00;0.00;;;;;;;16.94;70.15;98556.00;8248869;28;20241;-78
2022/10/17 03:14:13;;;;;;;0.00;0.00;;;;;;;16.97;69.92;98552.38;8248911;28;20222;-78
2022/10/17 03:18:15;;;;;;;0.00;0.00;;;;;;;16.98;70.71;98551.44;8235978;28;20226;-78
2022/10/17 03:22:18;;;;;;;0.00;0.00;;;;;;;16.94;70.74;98548.16;8254717;28;20230;-78
2022/10/17 03:26:22;;;;;;;0.00;0.00;;;;;;;16.90;70.63;98554.53;8254625;28;20491;-78
2022/10/17 03:30:25;;;;;;;0.00;0.00;;;;;;;16.94;70.63;98558.63;8254546;28;20384;-78
2022/10/17 03:34:28;;;;;;;0.00;0.00;;;;;;;16.90;70.55;98564.97;8254080;28;20414;-78
2022/10/17 03:38:30;;;;;;;0.00;0.00;;;;;;;16.73;71.34;98572.97;8254279;28;20291;-78
2022/10/17 03:42:35;;;;;;;0.00;0.00;;;;;;;16.83;70.57;98578.53;8254003;28;20237;-78
2022/10/17 03:46:37;;;;;;;0.00;0.00;;;;;;;16.79;70.81;98576.06;8230001;28;20313;-78
2022/10/17 03:50:40;;;;;;;0.00;0.00;;;;;;;16.81;70.89;98571.59;8221290;28;20235;-78
2022/10/17 03:54:43;;;;;;;0.00;0.00;;;;;;;16.78;70.57;98584.84;8221700;28;20319;-78
2022/10/17 03:58:47;;;;;;;0.00;0.00;;;;;;;16.78;70.50;98578.78;8221579;28;20538;-78
2022/10/17 04:02:50;;;;;;;0.00;0.00;;;;;;;16.84;70.41;98588.06;8221333;28;20234;-78
2022/10/17 04:06:53;;;;;;;0.00;0.00;;;;;;;16.81;70.64;98586.44;8221369;28;20235;-78
2022/10/17 04:10:58;;;;;;;0.00;0.00;;;;;;;16.76;70.08;98593.72;8221118;28;20406;-77
2022/10/17 04:15:03;;;;;;;0.00;0.00;;;;;;;16.74;69.40;98599.03;8220961;28;20231;-77
2022/10/17 04:19:06;;;;;;;0.00;0.00;;;;;;;16.70;70.36;98597.53;8220722;28;20227;-77
2022/10/17 04:23:08;;;;;;;0.00;0.00;;;;;;;16.69;69.16;98606.31;8220887;28;20446;-77
2022/10/17 04:27:11;;;;;;;0.00;0.00;;;;;;;16.61;68.90;98601.53;8220259;28;20250;-77
2022/10/17 04:31:15;;;;;;;0.00;0.00;;;;;;;16.56;68.61;98607.97;8220649;28;20608;-77
2022/10/17 04:35:18;;;;;;;0.00;0.00;;;;;;;16.51;68.40;98600.41;8220335;28;20227;-78
2022/10/17 04:39:21;;;;;;;0.00;0.00;;;;;;;16.50;69.18;98596.09;8220347;28;20239;-77
2022/10/17 04:43:23;;;;;;;0.00;0.00;;;;;;;16.49;68.72;98607.50;8220045;28;20230;-78
2022/10/17 04:47:28;;;;;;;0.00;0.00;;;;;;;16.44;68.85;98609.53;8220061;28;20238;-77
2022/10/17 04:51:30;;;;;;;0.00;0.00;;;;;;;16.38;68.51;98600.28;8219943;28;20425;-77
2022/10/17 04:55:37;;;;;;;0.00;0.00;;;;;;;16.38;68.94;98618.56;8219729;28;20281;-76
2022/10/17 04:59:40;;;;;;;0.00;0.00;;;;;;;16.41;69.49;98604.47;8251190;28;20257;-77
2022/10/17 05:03:44;;;;;;;0.00;0.00;;;;;;;16.42;69.63;98609.59;8251225;28;20238;-77
2022/10/17 05:07:47;;;;;;;0.00;0.00;;;;;;;16.40;69.44;98613.25;8251245;28;20250;-76
2022/10/17 05:11:50;;;;;;;0.00;0.00;;;;;;;16.25;71.24;98608.91;8251163;28;20556;-76
2022/10/17 05:15:53;;;;;;;0.00;0.00;;;;;;;16.44;70.44;98612.13;8251165;28;20245;-76
2022/10/17 05:19:57;;;;;;;0.00;0.00;;;;;;;16.46;70.16;98612.88;8251002;28;20250;-76
2022/10/17 05:24:00;;;;;;;0.00;0.00;;;;;;;16.43;70.14;98615.72;8250816;28;20596;-76
2022/10/17 05:28:03;;;;;;;0.00;0.00;;;;;;;16.42;69.94;98617.44;8250553;28;20229;-76
2022/10/17 05:32:05;;;;;;;0.00;0.00;;;;;;;16.34;70.90;98621.47;8250781;28;20230;-76
2022/10/17 05:36:10;;;;;;;0.00;0.00;;;;;;;16.33;70.45;98627.59;8250541;28;20401;-76
2022/10/17 05:40:13;;;;;;;0.00;0.00;;;;;;;16.40;70.46;98627.16;8249921;28;20226;-76
2022/10/17 05:44:16;;;;;;;0.00;0.00;;;;;;;16.35;70.73;98626.56;8250231;28;20246;-76
2022/10/17 05:48:19;;;;;;;0.00;0.00;;;;;;;16.36;69.98;98625.66;8250328;28;20249;-75
2022/10/17 05:52:23;;;;;;;0.03;0.03;;;;;;;16.44;69.78;98632.22;8250077;28;20452;-76
2022/10/17 05:56:26;;;;;;;0.00;0.00;;;;;;;16.39;69.89;98628.09;8250219;28;20241;-76
2022/10/17 06:00:28;;;;;;;0.00;0.00;;;;;;;16.46;69.56;98646.88;8250112;28;20537;-76
2022/10/17 06:04:31;;;;;;;0.00;0.00;;;;;;;16.46;69.12;98646.03;8249937;28;20231;-75
2022/10/17 06:08:35;;;;;;;0.00;0.00;;;;;;;16.42;70.19;98648.81;8249817;28;20238;-75
2022/10/17 06:12:38;;;;;;;0.00;0.00;;;;;;;16.54;69.51;98659.50;8249548;28;20285;-74
2022/10/17 06:16:42;;;;;;;0.00;0.00;;;;;;;16.64;69.54;98659.81;8249725;28;20238;-75
2022/10/17 06:20:45;;;;;;;0.00;0.00;;;;;;;16.84;69.64;98659.53;8249077;28;20239;-75
2022/10/17 06:24:52;;;;;;;0.00;0.00;;;;;;;17.10;69.02;98652.75;8249753;28;20239;-75
2022/10/17 06:28:55;;;;;;;0.00;0.00;;;;;;;17.27;68.22;98659.59;8248864;28;20233;-75
2022/10/17 06:32:58;;;;;;;0.00;0.00;;;;;;;17.54;67.97;98670.13;8249425;28;20242;-76
2022/10/17 06:37:01;;;;;;;0.00;0.00;;;;;;;17.73;67.38;98663.75;8249413;28;20241;-76
2022/10/17 06:41:09;;;;;;;0.00;0.00;;;;;;;17.56;67.72;98678.72;8249606;28;20521;-76
2022/10/17 06:45:12;;;;;;;0.00;0.00;;;;;;;17.74;67.70;98679.38;8249364;28;20497;-76
2022/10/17 06:49:15;;;;;;;0.00;0.00;;;;;;;17.54;68.58;98693.69;8249586;28;20233;-76
2022/10/17 06:53:18;;;;;;;0.00;0.00;;;;;;;17.45;68.94;98698.66;8254204;28;20230;-76
2022/10/17 06:57:22;;;;;;;0.00;0.00;;;;;;;17.52;68.57;98706.06;8255559;28;20254;-75
2022/10/17 07:01:25;;;;;;;0.00;0.00;;;;;;;17.62;67.57;98706.31;8255290;28;20226;-75
2022/10/17 07:05:28;;;;;;;0.00;0.00;;;;;;;17.36;68.68;98708.78;8255229;28;20262;-74
2022/10/17 07:09:31;;;;;;;0.00;0.00;;;;;;;17.35;69.42;98719.31;8254669;28;20242;-74
2022/10/17 07:13:35;;;;;;;0.00;0.00;;;;;;;17.00;70.43;98704.78;8254979;28;20241;-74
2022/10/17 07:17:41;;;;;;;0.00;0.00;;;;;;;17.03;70.67;98709.00;8253889;28;20465;-73
2022/10/17 07:21:43;;;;;;;0.00;0.00;;;;;;;17.46;69.43;98710.81;8254742;28;20628;-74
2022/10/17 07:25:46;;;;;;;0.00;0.00;;;;;;;17.64;69.04;98712.31;8254370;28;20246;-74
2022/10/17 07:29:51;;;;;;;0.00;0.00;;;;;;;17.78;67.73;98724.53;8254402;28;20306;-74
2022/10/17 07:33:54;;;;;;;0.00;0.00;;;;;;;17.40;68.95;98722.50;8254191;28;20266;-75
2022/10/17 07:37:56;;;;;;;0.00;0.00;;;;;;;17.81;67.93;98720.91;8254213;28;20238;-74
2022/10/17 07:41:59;;;;;;;0.00;0.00;;;;;;;18.11;67.34;98724.25;8254049;28;20266;-75
2022/10/17 07:46:04;;;;;;;0.00;0.00;;;;;;;18.47;65.61;98729.88;8253728;28;20245;-75
2022/10/17 07:50:08;;;;;;;0.00;0.00;;;;;;;19.16;64.07;98727.97;8253872;28;20231;-74
2022/10/17 07:54:11;;;;;;;0.00;0.00;;;;;;;19.55;62.70;98726.19;8253682;28;20235;-78
2022/10/17 07:58:14;;;;;;;0.00;0.00;;;;;;;19.62;61.18;98730.06;8253364;28;20595;-77
2022/10/17 08:02:22;;;;;;;0.00;0.00;;;;;;;20.23;59.91;98718.84;8253070;28;20236;-77
2022/10/17 08:06:24;;;;;;;0.00;0.00;;;;;;;20.68;58.51;98721.72;8253240;28;20240;-77
2022/10/17 08:10:28;;;;;;;0.00;0.00;;;;;;;21.14;57.57;98727.97;8252857;28;20234;-78
2022/10/17 08:14:31;;;;;;;0.00;0.00;;;;;;;21.58;56.13;98732.47;8252907;28;20242;-77
2022/10/17 08:18:35;;;;;;;0.00;0.00;;;;;;;22.00;54.76;98740.63;8253058;28;20257;-77
2022/10/17 08:22:38;;;;;;;0.00;0.00;;;;;;;21.96;54.66;98741.81;8219961;28;20230;-76
2022/10/17 08:26:41;;;;;;;0.00;0.00;;;;;;;22.16;54.18;98736.75;8220595;28;20247;-77
2022/10/17 08:30:47;;;;;;;0.00;0.00;;;;;;;22.86;52.76;98740.78;8220227;28;20238;-77
2022/10/17 08:34:51;;;;;;;0.00;0.00;;;;;;;22.73;53.91;98738.34;8220165;28;20254;-78
2022/10/17 08:38:54;;;;;;;0.00;0.00;;;;;;;23.16;52.98;98729.47;8220277;28;20542;-79
2022/10/17 08:43:07;;;;;;;0.00;0.00;;;;;;;23.54;51.42;98719.28;8220188;28;20557;-76
2022/10/17 08:47:14;;;;;;;0.00;0.00;;;;;;;23.22;52.60;98720.19;8220072;28;20235;-76
2022/10/17 08:51:21;;;;;;;0.00;0.00;;;;;;;23.41;52.74;98722.94;8219970;28;20416;-76
2022/10/17 08:55:30;;;;;;;0.00;0.00;;;;;;;23.62;51.98;98722.91;8219739;28;20278;-76
2022/10/17 08:59:32;;;;;;;0.00;0.00;;;;;;;24.37;50.47;98738.50;8220965;28;20236;-76
2022/10/17 09:03:45;;;;;;;0.00;0.00;;;;;;;24.43;49.57;98732.66;8221663;28;20240;-78
2022/10/17 09:07:55;;;;;;;0.00;0.00;;;;;;;24.93;48.79;98724.59;8254209;28;20235;-76
2022/10/17 09:12:06;;;;;;;0.00;0.00;;;;;;;25.28;48.46;98725.81;8251786;28;20248;-76
2022/10/17 09:16:19;;;;;;;0.00;0.00;;;;;;;24.83;47.92;98713.19;8250491;28;20238;-76
2022/10/17 09:20:24;;;;;;;0.00;0.00;;;;;;;25.36;48.75;98710.06;8251506;28;20246;-76
2022/10/17 09:24:38;;;;;;;0.00;0.00;;;;;;;25.51;48.15;98715.72;8251344;28;20566;-77
2022/10/17 09:28:42;;;;;;;0.00;0.00;;;;;;;25.91;46.65;98719.91;8250592;28;20439;-77
2022/10/17 09:32:46;;;;;;;0.00;0.00;;;;;;;25.83;46.99;98718.94;8250965;28;20236;-77
2022/10/17 09:36:52;;;;;;;0.00;0.00;;;;;;;26.30;47.01;98721.50;8250742;28;20411;-76
2022/10/17 09:40:57;;;;;;;0.00;0.00;;;;;;;26.38;45.83;98718.09;8250351;28;20239;-77
2022/10/17 09:45:11;;;;;;;0.00;0.00;;;;;;;26.14;45.90;98712.38;8250510;28;20228;-77
2022/10/17 09:49:17;;;;;;;0.00;0.00;;;;;;;26.12;46.49;98721.47;8250758;28;20433;-77
2022/10/17 09:53:23;;;;;;;0.00;0.00;;;;;;;26.37;46.97;98719.94;8250512;28;20423;-77
2022/10/17 09:57:27;;;;;;;0.00;0.00;;;;;;;26.85;45.67;98723.22;8250370;28;20236;-77
2022/10/17 10:01:33;;;;;;;0.00;0.00;;;;;;;26.86;45.56;98716.91;8250303;28;20309;-77
2022/10/17 10:05:36;;;;;;;0.00;0.00;;;;;;;26.84;45.38;98714.38;8250477;28;20276;-78
2022/10/17 10:09:39;;;;;;;0.00;0.00;;;;;;;26.51;45.37;98711.44;8249746;28;20266;-77
2022/10/17 10:13:45;;;;;;;0.00;0.00;;;;;;;26.66;45.46;98711.75;8250201;28;20264;-78
2022/10/17 10:17:48;;;;;;;0.00;0.00;;;;;;;26.58;46.49;98716.13;8250263;28;20245;-78
2022/10/17 10:21:55;;;;;;;0.00;0.00;;;;;;;26.41;46.11;98712.50;8250041;28;20240;-77
2022/10/17 10:26:00;;;;;;;0.00;0.00;;;;;;;26.49;46.63;98707.25;8252854;28;20340;-78
2022/10/17 10:30:05;;;;;;;0.00;0.00;;;;;;;26.41;45.88;98718.63;8256371;28;20232;-78
2022/10/17 10:34:20;;;;;;;0.00;0.00;;;;;;;25.85;46.67;98725.75;8256324;28;20411;-78
2022/10/17 10:38:24;;;;;;;0.00;0.00;;;;;;;25.64;47.85;98722.50;8256052;28;20600;-78
2022/10/17 10:42:29;;;;;;;0.00;0.00;;;;;;;25.82;48.02;98714.63;8256364;28;20244;-78
2022/10/17 10:46:33;;;;;;;0.00;0.00;;;;;;;25.83;48.05;98717.13;8256519;28;20245;-78
2022/10/17 10:50:39;;;;;;;0.00;0.00;;;;;;;25.99;47.95;98703.25;8256011;28;20235;-78
2022/10/17 10:54:54;;;;;;;0.00;0.00;;;;;;;25.99;47.13;98708.56;8255204;28;20251;-78
2022/10/17 10:59:00;;;;;;;0.00;0.00;;;;;;;25.90;46.69;98701.47;8255470;28;20507;-78
2022/10/17 11:03:10;;;;;;;0.00;0.00;;;;;;;25.77;46.91;98693.00;8255568;28;20240;-77
2022/10/17 11:07:22;;;;;;;0.00;0.00;;;;;;;25.70;47.24;98688.31;8255646;28;20239;-77
2022/10/17 11:11:28;;;;;;;0.00;0.00;;;;;;;25.33;48.13;98690.94;8255043;28;20279;-75
2022/10/17 11:15:35;;;;;;;0.00;0.00;;;;;;;25.45;47.05;98687.13;8255120;28;20254;-77
2022/10/17 11:19:43;;;;;;;0.00;0.00;;;;;;;25.50;46.31;98690.19;8230632;28;20507;-75
2022/10/17 11:23:48;;;;;;;0.00;0.00;;;;;;;25.61;45.91;98689.16;8222664;28;20279;-76
2022/10/17 11:27:51;;;;;;;0.00;0.00;;;;;;;25.21;47.70;98690.25;8222480;28;20296;-77
2022/10/17 11:31:55;;;;;;;0.00;0.00;;;;;;;25.64;46.58;98698.66;8222520;28;20267;-75
2022/10/17 11:36:04;;;;;;;0.00;0.00;;;;;;;25.24;46.96;98699.75;8221776;28;20476;-75
2022/10/17 11:40:14;;;;;;;0.00;0.00;;;;;;;25.60;46.83;98699.91;8222270;28;20232;-75
2022/10/17 11:44:29;;;;;;;0.00;0.00;;;;;;;25.51;47.19;98691.88;8221617;28;20225;-77
2022/10/17 11:48:36;;;;;;;0.00;0.00;;;;;;;25.53;46.96;98689.03;8222033;28;20436;-74
2022/10/17 11:52:42;;;;;;;0.00;0.00;;;;;;;25.66;47.65;98688.72;8221577;28;20237;-74
2022/10/17 11:57:09;;;;;;;0.00;0.00;;;;;;;25.62;47.34;98690.00;8221858;28;20299;-75
2022/10/17 12:01:24;;;;;;;0.00;0.00;;;;;;;25.84;48.02;98694.94;8221564;28;20479;-75
2022/10/17 12:05:34;;;;;;;0.00;0.00;;;;;;;25.74;48.13;98694.97;8221918;28;20420;-82
2022/10/17 12:09:44;;;;;;;0.00;0.00;;;;;;;25.26;48.40;98692.50;8221881;28;20248;-82
2022/10/17 12:13:50;;;;;;;0.00;0.00;;;;;;;25.05;49.16;98684.69;8253418;28;20240;-80
2022/10/17 12:17:55;;;;;;;0.00;0.00;;;;;;;24.93;49.68;98673.44;8252956;28;20235;-80
2022/10/17 12:22:15;;;;;;;0.00;0.00;;;;;;;25.29;49.79;98676.31;8253280;28;20242;-82
2022/10/17 12:26:26;;;;;;;0.00;0.00;;;;;;;25.31;49.91;98664.56;8252326;28;20259;-82
2022/10/17 12:30:29;;;;;;;0.00;0.00;;;;;;;25.05;50.38;98660.84;8253430;28;20248;-82
2022/10/17 12:34:32;;;;;;;0.00;0.00;;;;;;;24.93;50.49;98652.25;8253617;28;20275;-81
2022/10/17 12:38:34;;;;;;;0.00;0.00;;;;;;;25.17;50.52;98649.94;8252815;28;20238;-79
2022/10/17 12:42:50;;;;;;;0.00;0.00;;;;;;;25.12;50.35;98646.06;8252784;28;20243;-81
2022/10/17 12:46:56;;;;;;;0.00;0.00;;;;;;;24.90;50.94;98644.56;8252555;28;20240;-81
2022/10/17 12:51:04;;;;;;;0.00;0.00;;;;;;;25.43;49.53;98641.38;8251641;28;20419;-80
2022/10/17 12:55:27;;;;;;;0.00;0.00;;;;;;;25.45;49.12;98642.06;8252389;28;20563;-82
2022/10/17 12:59:32;;;;;;;0.00;0.00;;;;;;;25.24;50.20;98644.94;8252557;28;20239;-80
2022/10/17 13:03:43;;;;;;;0.00;0.00;;;;;;;25.67;49.07;98647.97;8252561;28;20468;-80
2022/10/17 13:07:47;;;;;;;0.00;0.00;;;;;;;25.84;48.84;98649.00;8219479;28;20655;-81
2022/10/17 13:11:50;;;;;;;0.00;0.00;;;;;;;25.46;49.11;98650.88;8220273;28;20255;-82
2022/10/17 13:15:55;;;;;;;0.00;0.00;;;;;;;26.02;48.89;98664.97;8220160;28;20528;-80
2022/10/17 13:19:58;;;;;;;0.00;0.00;;;;;;;25.97;48.42;98680.50;8220286;28;20252;-82
2022/10/17 13:24:01;;;;;;;0.00;0.00;;;;;;;25.99;48.46;98676.72;8219906;28;20450;-81
2022/10/17 13:28:07;;;;;;;0.00;0.00;;;;;;;26.23;47.80;98672.66;8219600;28;20247;-81
2022/10/17 13:32:12;;;;;;;0.00;0.00;;;;;;;26.03;45.67;98679.91;8219889;28;20275;-82
2022/10/17 13:36:17;;;;;;;0.00;0.00;;;;;;;26.12;46.07;98677.19;8219608;28;20512;-81
2022/10/17 13:40:22;;;;;;;0.00;0.00;;;;;;;26.07;45.93;98676.81;8219771;28;20237;-82
2022/10/17 13:44:45;;;;;;;0.00;0.00;;;;;;;26.29;46.08;98669.38;8218994;28;20302;-83
2022/10/17 13:48:50;;;;;;;0.00;0.00;;;;;;;26.40;46.51;98677.13;8219043;28;20260;-82
2022/10/17 13:53:07;;;;;;;0.00;0.00;;;;;;;26.09;45.79;98680.16;8218727;28;20249;-82
2022/10/17 13:57:19;;;;;;;0.00;0.00;;;;;;;26.51;45.88;98676.91;8219423;28;20238;-82
2022/10/17 14:01:22;;;;;;;0.00;0.00;;;;;;;26.13;46.22;98672.72;8219263;28;20237;-82
2022/10/17 14:05:26;;;;;;;0.00;0.00;;;;;;;26.61;45.21;98670.72;8219986;28;20233;-81
2022/10/17 14:09:30;;;;;;;0.00;0.00;;;;;;;26.71;45.10;98674.09;8217786;28;20253;-78
2022/10/17 14:13:34;;;;;;;0.00;0.00;;;;;;;26.57;45.97;98680.78;8217106;28;20252;-81
2022/10/17 14:17:37;;;;;;;0.00;0.00;;;;;;;26.53;44.97;98676.75;8217716;28;20304;-82
2022/10/17 14:21:41;;;;;;;0.00;0.00;;;;;;;26.51;46.28;98678.72;8225017;28;20463;-81
2022/10/17 14:25:46;;;;;;;0.00;0.00;;;;;;;26.28;46.00;98684.50;8218242;28;20281;-80
2022/10/17 14:29:53;;;;;;;0.00;0.00;;;;;;;26.46;46.03;98686.31;8218686;28;20241;-82
2022/10/17 14:33:56;;;;;;;0.00;0.00;;;;;;;26.44;46.16;98682.97;8218345;28;20468;-80
2022/10/17 14:38:01;;;;;;;0.00;0.00;;;;;;;26.02;45.96;98688.84;8218289;28;20236;-81
2022/10/17 14:42:04;;;;;;;0.00;0.00;;;;;;;26.00;46.68;98701.44;8218280;28;20234;-81
2022/10/17 14:46:07;;;;;;;0.00;0.00;;;;;;;25.91;47.17;98703.13;8218234;28;20272;-82
2022/10/17 14:50:22;;;;;;;0.00;0.00;;;;;;;25.99;47.28;98703.25;8218443;28;20249;-81
2022/10/17 14:54:29;;;;;;;0.00;0.00;;;;;;;25.68;48.54;98705.31;8218174;28;20308;-81
2022/10/17 14:58:33;;;;;;;0.00;0.00;;;;;;;25.56;48.85;98704.69;8217593;28;20252;-81
2022/10/17 15:02:36;;;;;;;0.00;0.00;;;;;;;25.29;49.08;98710.78;8217721;28;20432;-80
2022/10/17 15:06:39;;;;;;;0.00;0.00;;;;;;;25.25;48.64;98709.41;8217076;28;20243;-79
2022/10/17 15:10:44;;;;;;;0.00;0.00;;;;;;;25.09;49.25;98705.50;8216900;28;20245;-80
2022/10/17 15:14:47;;;;;;;0.00;0.00;;;;;;;24.89;50.26;98704.66;8223420;28;20458;-81
2022/10/17 15:18:51;;;;;;;0.00;0.00;;;;;;;24.74;50.64;98714.03;8223477;28;20238;-82
2022/10/17 15:22:54;;;;;;;0.00;0.00;;;;;;;24.48;51.90;98722.47;8223224;28;20251;-82
2022/10/17 15:26:58;;;;;;;0.00;0.00;;;;;;;24.31;52.50;98717.84;8223281;28;20235;-80
2022/10/17 15:31:01;;;;;;;0.00;0.00;;;;;;;24.18;53.19;98726.06;8222888;28;20240;-81
2022/10/17 15:35:04;;;;;;;0.00;0.00;;;;;;;24.14;53.56;98724.66;8222966;28;20241;-81
2022/10/17 15:39:06;;;;;;;0.00;0.00;;;;;;;23.94;53.90;98726.41;8223046;28;20297;-81
2022/10/17 15:43:11;;;;;;;0.00;0.00;;;;;;;23.91;54.00;98727.53;8223464;28;20240;-82
2022/10/17 15:47:23;;;;;;;0.00;0.00;;;;;;;23.83;55.04;98727.34;8223991;28;20233;-80
2022/10/17 15:51:26;;;;;;;0.00;0.00;;;;;;;23.69;55.71;98736.44;8224067;28;20318;-81
2022/10/17 15:55:28;;;;;;;0.00;0.00;;;;;;;23.57;56.21;98732.19;8223011;28;20244;-79
2022/10/17 15:59:34;;;;;;;0.00;0.00;;;;;;;23.46;57.15;98742.88;8222767;28;20239;-79
2022/10/17 16:03:37;;;;;;;0.00;0.00;;;;;;;23.35;58.16;98739.34;8222228;28;20539;-78
2022/10/17 16:07:39;;;;;;;0.00;0.00;;;;;;;23.24;58.26;98742.03;8221381;28;20237;-79
2022/10/17 16:11:43;;;;;;;0.00;0.00;;;;;;;23.09;59.32;98740.69;8221823;28;20297;-79
2022/10/17 16:15:47;;;;;;;0.00;0.00;;;;;;;23.08;59.36;98747.78;8221715;28;20230;-79
2022/10/17 16:19:50;;;;;;;0.00;0.00;;;;;;;22.93;59.84;98746.41;8220433;28;20236;-82
2022/10/17 16:23:53;;;;;;;0.00;0.00;;;;;;;22.87;60.28;98754.84;8221408;28;20640;-81
2022/10/17 16:27:58;;;;;;;0.00;0.00;;;;;;;22.73;60.62;98756.81;8221335;28;20524;-80
2022/10/17 16:32:02;;;;;;;0.00;0.00;;;;;;;22.61;60.99;98763.91;8221391;28;20222;-81
2022/10/17 16:36:05;;;;;;;0.00;0.00;;;;;;;22.54;60.37;98760.13;8221219;28;20233;-81
2022/10/17 16:40:09;;;;;;;0.00;0.00;;;;;;;22.44;60.30;98760.00;8220862;28;20443;-80
2022/10/17 16:44:13;;;;;;;0.00;0.00;;;;;;;22.31;60.61;98764.59;8219770;28;20235;-79
2022/10/17 16:48:17;;;;;;;0.00;0.00;;;;;;;22.22;60.34;98760.88;8220370;28;20252;-78
2022/10/17 16:52:20;;;;;;;0.00;0.00;;;;;;;22.11;60.85;98762.69;8220425;28;20547;-79
2022/10/17 16:56:24;;;;;;;0.00;0.00;;;;;;;22.04;61.05;98759.69;8220157;28;20237;-78
2022/10/17 17:00:27;;;;;;;0.00;0.00;;;;;;;21.98;60.94;98774.19;8220381;28;20235;-78
2022/10/17 17:04:31;;;;;;;0.00;0.00;;;;;;;21.90;60.86;98771.31;8219984;28;20303;-78
2022/10/17 17:08:35;;;;;;;0.00;0.00;;;;;;;21.82;61.35;98768.44;8219786;28;20421;-79
2022/10/17 17:12:38;;;;;;;0.00;0.00;;;;;;;21.72;61.72;98770.13;8251242;28;20426;-77
2022/10/17 17:16:42;;;;;;;0.00;0.00;;;;;;;21.69;61.50;98773.00;8251514;28;20238;-77
2022/10/17 17:20:46;;;;;;;0.00;0.00;;;;;;;21.66;62.42;98766.16;8251282;28;20234;-76
2022/10/17 17:24:49;;;;;;;0.00;0.00;;;;;;;21.55;62.31;98768.78;8250765;28;20242;-76
2022/10/17 17:28:53;;;;;;;0.00;0.00;;;;;;;21.46;62.70;98780.88;8250989;28;20249;-75
2022/10/17 17:32:56;;;;;;;0.00;0.00;;;;;;;21.45;62.60;98780.00;8250745;28;20237;-76
2022/10/17 17:37:00;;;;;;;0.00;0.00;;;;;;;21.40;62.45;98776.88;8249356;28;20545;-79
2022/10/17 17:41:03;;;;;;;0.00;0.00;;;;;;;21.35;62.29;98786.09;8250611;28;20230;-77
2022/10/17 17:45:07;;;;;;;0.00;0.00;;;;;;;21.21;63.21;98797.63;8250999;28;20257;-80
2022/10/17 17:49:10;;;;;;;0.00;0.00;;;;;;;21.13;62.87;98810.56;8250194;28;20226;-81
2022/10/17 17:53:15;;;;;;;0.00;0.00;;;;;;;21.01;62.94;98809.69;8250553;28;20258;-78
2022/10/17 17:57:18;;;;;;;0.00;0.00;;;;;;;20.93;63.05;98817.31;8250309;28;20229;-76
2022/10/17 18:01:22;;;;;;;0.00;0.00;;;;;;;20.88;63.25;98821.09;8250340;28;20242;-74
2022/10/17 18:05:25;;;;;;;0.00;0.00;;;;;;;20.79;63.38;98820.94;8249986;28;20554;-77
2022/10/17 18:09:29;;;;;;;0.00;0.00;;;;;;;20.76;63.38;98827.28;8249687;28;20469;-79
2022/10/17 18:13:32;;;;;;;0.00;0.00;;;;;;;20.69;63.38;98841.81;8250051;28;20241;-77
2022/10/17 18:17:35;;;;;;;0.00;0.00;;;;;;;20.66;63.38;98842.06;8249924;28;20425;-77
2022/10/17 18:21:38;;;;;;;0.00;0.00;;;;;;;20.57;63.34;98848.78;8249679;28;20252;-76
2022/10/17 18:25:42;;;;;;;0.00;0.00;;;;;;;20.48;63.68;98849.44;8249612;28;20238;-77
2022/10/17 18:29:45;;;;;;;0.00;0.00;;;;;;;20.47;63.93;98845.13;8249955;28;20242;-78
2022/10/17 18:33:51;;;;;;;0.00;0.00;;;;;;;20.40;63.60;98847.34;8249888;28;20246;-78
2022/10/17 18:37:55;;;;;;;0.00;0.00;;;;;;;20.34;63.58;98844.31;8249903;28;20559;-78
2022/10/17 18:41:59;;;;;;;0.00;0.00;;;;;;;20.53;64.69;98849.13;8249307;28;20242;-76
2022/10/17 18:46:04;;;;;;;0.00;0.00;;;;;;;20.57;63.65;98851.41;8250935;28;20226;-77
2022/10/17 18:50:07;;;;;;;0.00;0.00;;;;;;;20.42;62.56;98850.69;8255665;28;20234;-77
2022/10/17 18:54:13;;;;;;;0.00;0.00;;;;;;;20.61;63.32;98854.69;8255830;28;20296;-78
2022/10/17 18:58:18;;;;;;;0.00;0.00;;;;;;;20.30;62.60;98852.41;8255847;28;20230;-75
2022/10/17 19:02:21;;;;;;;0.00;0.00;;;;;;;20.10;63.18;98848.56;8255658;28;20234;-75
2022/10/17 19:06:25;;;;;;;0.00;0.00;;;;;;;20.05;62.88;98855.91;8255766;28;20229;-76
2022/10/17 19:10:28;;;;;;;0.00;0.00;;;;;;;19.92;62.83;98855.09;8255107;28;20244;-76
2022/10/17 19:14:32;;;;;;;0.00;0.00;;;;;;;19.86;63.27;98860.78;8255325;28;20234;-76